createdAt,value
2023-01-01T00:01:27.326Z,72.62
2023-01-01T00:03:55.200Z,73.39
2023-01-01T00:06:22.345Z,73.11
2023-01-01T00:08:49.224Z,73.47
2023-01-01T00:11:15.601Z,72.69
2023-01-01T00:13:42.418Z,72.83
2023-01-01T00:16:12.221Z,73.03
2023-01-01T00:18:38.986Z,73.14
2023-01-01T00:21:12.539Z,73.68
2023-01-01T00:23:39.236Z,74.18
2023-01-01T00:26:17.064Z,74.33
2023-01-01T00:28:44.802Z,74.12
2023-01-01T00:31:19.794Z,74.40
2023-01-01T00:33:50.476Z,74.04
2023-01-01T00:36:17.694Z,73.99
2023-01-01T00:38:44.981Z,73.91
2023-01-01T00:41:12.937Z,74.14
2023-01-01T00:43:39.729Z,73.97
2023-01-01T00:46:06.834Z,74.33
2023-01-01T00:48:33.490Z,74.63
2023-01-01T00:50:59.949Z,74.37
2023-01-01T00:53:26.325Z,74.30
2023-01-01T00:55:53.285Z,74.21
2023-01-01T00:58:19.982Z,74.38
2023-01-01T01:00:46.509Z,74.53
2023-01-01T01:03:27.806Z,74.59
2023-01-01T01:05:55.400Z,74.84
2023-01-01T01:08:26.905Z,74.66
2023-01-01T01:11:17.111Z,74.63
2023-01-01T01:13:45.206Z,74.78
2023-01-01T01:16:14.470Z,74.65
2023-01-01T01:18:40.866Z,75.16
2023-01-01T01:21:07.737Z,75.45
2023-01-01T01:23:34.498Z,75.11
2023-01-01T01:26:28.672Z,75.33
2023-01-01T01:28:55.177Z,75.01
2023-01-01T01:31:23.605Z,75.62
2023-01-01T01:33:50.427Z,75.23
2023-01-01T01:36:17.624Z,74.67
2023-01-01T01:38:44.166Z,75.11
2023-01-01T01:41:26.019Z,74.90
2023-01-01T01:43:53.937Z,76.23
2023-01-01T01:46:35.529Z,77.05
2023-01-01T01:49:15.964Z,77.96
2023-01-01T01:51:42.612Z,78.83
2023-01-01T01:54:14.097Z,77.71
2023-01-01T01:56:47.888Z,78.46
2023-01-01T01:59:15.014Z,78.41
2023-01-01T02:01:42.164Z,78.63
2023-01-01T02:04:08.949Z,78.37
2023-01-01T02:06:35.850Z,78.64
2023-01-01T02:09:04.418Z,78.33
2023-01-01T02:11:31.456Z,78.29
2023-01-01T02:13:58.770Z,78.24
2023-01-01T02:16:42.893Z,77.91
2023-01-01T02:19:32.607Z,78.55
2023-01-01T02:22:13.444Z,78.00
2023-01-01T02:25:05.736Z,78.09
2023-01-01T02:27:58.010Z,77.18
2023-01-01T02:30:24.380Z,77.60
2023-01-01T02:32:57.303Z,77.25
2023-01-01T02:35:38.321Z,77.11
2023-01-01T02:38:11.307Z,77.00
2023-01-01T02:40:42.999Z,77.72
2023-01-01T02:43:09.473Z,77.92
2023-01-01T02:45:35.940Z,78.36
2023-01-01T02:48:07.232Z,77.92
2023-01-01T02:50:34.343Z,77.84
2023-01-01T02:53:23.662Z,77.15
2023-01-01T02:56:11.253Z,77.09
2023-01-01T02:59:04.888Z,76.84
2023-01-01T03:01:40.343Z,77.05
2023-01-01T03:04:30.575Z,77.61
2023-01-01T03:07:02.839Z,79.12
2023-01-01T03:09:53.367Z,79.31
2023-01-01T03:12:43.476Z,79.66
2023-01-01T03:15:18.803Z,79.96
2023-01-01T03:18:01.757Z,79.83
2023-01-01T03:20:31.855Z,80.20
2023-01-01T03:23:02.401Z,80.02
2023-01-01T03:25:32.476Z,80.44
2023-01-01T03:28:06.628Z,80.58
2023-01-01T03:30:32.862Z,80.87
2023-01-01T03:33:04.025Z,81.47
2023-01-01T03:35:59.713Z,81.04
2023-01-01T03:38:31.300Z,82.21
2023-01-01T03:41:11.772Z,81.56
2023-01-01T03:43:53.361Z,82.05
2023-01-01T03:46:24.845Z,82.25
2023-01-01T03:49:03.167Z,82.47
2023-01-01T03:51:32.925Z,81.83
2023-01-01T03:54:02.241Z,82.31
2023-01-01T03:56:45.567Z,80.67
2023-01-01T03:59:21.581Z,81.24
2023-01-01T04:01:51.977Z,81.21
2023-01-01T04:04:18.972Z,81.40
2023-01-01T04:06:45.682Z,81.21
2023-01-01T04:09:15.797Z,81.28
2023-01-01T04:12:01.905Z,81.88
2023-01-01T04:14:36.323Z,81.93
2023-01-01T04:17:04.749Z,82.12
2023-01-01T04:19:31.498Z,81.83
2023-01-01T04:21:58.052Z,82.08
2023-01-01T04:24:24.444Z,82.25
2023-01-01T04:26:54.800Z,81.92
2023-01-01T04:29:21.685Z,82.14
2023-01-01T04:31:48.647Z,82.29
2023-01-01T04:34:15.446Z,81.42
2023-01-01T04:36:42.114Z,81.90
2023-01-01T04:39:08.913Z,81.75
2023-01-01T04:41:35.304Z,81.81
2023-01-01T04:44:01.703Z,81.99
2023-01-01T04:46:28.296Z,81.63
2023-01-01T04:48:57.317Z,81.94
2023-01-01T04:51:23.781Z,81.92
2023-01-01T04:53:50.169Z,81.57
2023-01-01T04:56:18.873Z,81.78
2023-01-01T04:58:46.083Z,82.04
2023-01-01T05:01:18.806Z,81.47
2023-01-01T05:03:45.666Z,82.04
2023-01-01T05:06:12.984Z,82.50
2023-01-01T05:08:41.638Z,82.71
2023-01-01T05:11:13.534Z,82.41
2023-01-01T05:13:42.546Z,82.34
2023-01-01T05:16:11.591Z,82.53
2023-01-01T05:18:38.245Z,83.15
2023-01-01T05:21:06.655Z,82.89
2023-01-01T05:23:33.395Z,81.85
2023-01-01T05:25:59.840Z,82.65
2023-01-01T05:28:26.377Z,82.48
2023-01-01T05:30:53.671Z,82.40
2023-01-01T05:33:20.280Z,82.32
2023-01-01T05:35:53.053Z,82.64
2023-01-01T05:38:19.403Z,82.04
2023-01-01T05:40:45.768Z,82.24
2023-01-01T05:43:12.111Z,81.76
2023-01-01T05:45:39.062Z,82.18
2023-01-01T05:48:07.075Z,82.53
2023-01-01T05:50:33.478Z,83.50
2023-01-01T05:52:59.841Z,83.68
2023-01-01T05:55:26.209Z,82.90
2023-01-01T05:57:52.856Z,83.52
2023-01-01T06:00:19.324Z,84.90
2023-01-01T06:02:45.718Z,84.05
2023-01-01T06:05:12.164Z,85.31
2023-01-01T06:07:42.052Z,84.00
2023-01-01T06:10:11.170Z,84.57
2023-01-01T06:12:37.517Z,83.60
2023-01-01T06:15:04.168Z,84.57
2023-01-01T06:17:30.546Z,83.55
2023-01-01T06:19:56.902Z,83.42
2023-01-01T06:22:23.239Z,83.88
2023-01-01T06:24:49.579Z,83.73
2023-01-01T06:27:15.906Z,82.91
2023-01-01T06:29:42.239Z,83.57
2023-01-01T06:32:08.640Z,83.56
2023-01-01T06:34:35.010Z,83.29
2023-01-01T06:37:06.492Z,83.00
2023-01-01T06:39:33.490Z,83.84
2023-01-01T06:41:59.906Z,83.46
2023-01-01T06:44:26.249Z,83.42
2023-01-01T06:46:52.782Z,82.67
2023-01-01T06:49:19.177Z,82.75
2023-01-01T06:51:45.524Z,82.55
2023-01-01T06:54:12.091Z,82.08
2023-01-01T06:56:38.632Z,82.08
2023-01-01T06:59:05.087Z,81.98
2023-01-01T07:01:33.231Z,81.76
2023-01-01T07:04:01.794Z,82.47
2023-01-01T07:06:29.476Z,82.79
2023-01-01T07:08:56.393Z,82.38
2023-01-01T07:11:22.957Z,82.33
2023-01-01T07:13:49.331Z,82.67
2023-01-01T07:16:15.798Z,82.20
2023-01-01T07:18:42.523Z,81.75
2023-01-01T07:21:34.578Z,82.65
2023-01-01T07:24:02.854Z,82.79
2023-01-01T07:26:30.608Z,83.35
2023-01-01T07:29:04.589Z,82.64
2023-01-01T07:31:34.170Z,83.44
2023-01-01T07:34:00.605Z,82.61
2023-01-01T07:36:27.034Z,82.58
2023-01-01T07:38:53.385Z,83.39
2023-01-01T07:41:19.720Z,82.19
2023-01-01T07:43:46.103Z,82.46
2023-01-01T07:46:13.043Z,82.66
2023-01-01T07:48:40.283Z,83.25
2023-01-01T07:51:06.783Z,82.91
2023-01-01T07:53:33.308Z,82.87
2023-01-01T07:55:59.685Z,83.00
2023-01-01T07:58:26.223Z,83.10
2023-01-01T08:00:52.627Z,82.72
2023-01-01T08:03:19.047Z,82.52
2023-01-01T08:05:45.470Z,81.90
2023-01-01T08:08:11.862Z,81.39
2023-01-01T08:10:38.489Z,81.83
2023-01-01T08:13:06.773Z,81.75
2023-01-01T08:15:33.888Z,82.08
2023-01-01T08:18:02.838Z,82.28
2023-01-01T08:20:30.669Z,83.19
2023-01-01T08:23:01.449Z,83.14
2023-01-01T08:25:31.124Z,83.05
2023-01-01T08:27:57.514Z,83.13
2023-01-01T08:30:24.022Z,83.66
2023-01-01T08:32:50.422Z,83.69
2023-01-01T08:35:16.795Z,83.32
2023-01-01T08:37:46.186Z,83.49
2023-01-01T08:40:13.315Z,83.46
2023-01-01T08:42:39.993Z,82.90
2023-01-01T08:45:07.247Z,81.98
2023-01-01T08:47:33.653Z,81.80
2023-01-01T08:49:59.985Z,81.97
2023-01-01T08:52:26.329Z,80.72
2023-01-01T08:54:52.693Z,81.23
2023-01-01T08:57:19.099Z,81.54
2023-01-01T08:59:45.509Z,82.62
2023-01-01T09:02:12.317Z,79.88
2023-01-01T09:04:38.795Z,79.14
2023-01-01T09:07:05.229Z,79.07
2023-01-01T09:09:32.015Z,78.79
2023-01-01T09:12:01.673Z,77.96
2023-01-01T09:14:28.061Z,77.07
2023-01-01T09:16:54.402Z,77.76
2023-01-01T09:19:20.816Z,78.75
2023-01-01T09:21:47.171Z,79.41
2023-01-01T09:24:13.546Z,80.03
2023-01-01T09:26:39.939Z,79.38
2023-01-01T09:29:06.296Z,76.81
2023-01-01T09:31:32.728Z,76.64
2023-01-01T09:34:01.971Z,75.67
2023-01-01T09:36:30.645Z,75.38
2023-01-01T09:38:57.687Z,75.49
2023-01-01T09:41:43.869Z,74.52
2023-01-01T09:44:27.743Z,74.13
2023-01-01T09:46:54.638Z,74.49
2023-01-01T09:49:34.510Z,74.53
2023-01-01T09:52:05.184Z,74.67
2023-01-01T09:54:35.364Z,73.87
2023-01-01T09:57:04.082Z,73.83
2023-01-01T09:59:30.627Z,73.45
2023-01-01T10:02:15.809Z,72.88
2023-01-01T10:04:58.179Z,73.39
2023-01-01T10:07:56.510Z,74.51
2023-01-01T10:10:50.047Z,74.21
2023-01-01T10:13:38.267Z,73.73
2023-01-01T10:16:11.710Z,74.31
2023-01-01T10:18:38.925Z,74.25
2023-01-01T10:21:14.764Z,75.00
2023-01-01T10:24:03.380Z,74.34
2023-01-01T10:26:31.659Z,73.56
2023-01-01T10:29:03.500Z,73.75
2023-01-01T10:31:39.006Z,72.72
2023-01-01T10:34:20.224Z,72.30
2023-01-01T10:36:46.806Z,72.13
2023-01-01T10:39:15.724Z,72.21
2023-01-01T10:41:42.705Z,72.09
2023-01-01T10:44:10.175Z,72.10
2023-01-01T10:46:37.427Z,71.34
2023-01-01T10:49:05.699Z,70.92
2023-01-01T10:51:32.161Z,70.56
2023-01-01T10:53:58.550Z,71.17
2023-01-01T10:56:25.366Z,71.53
2023-01-01T10:58:56.798Z,70.61
2023-01-01T11:01:26.374Z,71.18
2023-01-01T11:03:57.054Z,70.46
2023-01-01T11:06:26.510Z,70.84
2023-01-01T11:08:55.278Z,71.10
2023-01-01T11:11:26.898Z,70.62
2023-01-01T11:13:54.946Z,69.57
2023-01-01T11:16:21.816Z,69.91
2023-01-01T11:18:49.453Z,69.15
2023-01-01T11:21:23.010Z,69.02
2023-01-01T11:23:52.640Z,68.36
2023-01-01T11:26:21.668Z,67.98
2023-01-01T11:29:17.271Z,67.66
2023-01-01T11:31:45.901Z,67.38
2023-01-01T11:34:27.349Z,67.61
2023-01-01T11:37:15.330Z,67.43
2023-01-01T11:39:43.342Z,66.75
2023-01-01T11:42:20.486Z,67.43
2023-01-01T11:44:55.492Z,67.42
2023-01-01T11:47:29.265Z,67.45
2023-01-01T11:50:13.853Z,67.41
2023-01-01T11:52:44.616Z,67.63
2023-01-01T11:55:37.660Z,68.02
2023-01-01T11:58:19.763Z,68.46
2023-01-01T12:00:47.857Z,68.45
2023-01-01T12:03:17.199Z,68.17
2023-01-01T12:06:07.691Z,67.50
2023-01-01T12:08:38.030Z,68.36
2023-01-01T12:11:24.053Z,67.88
2023-01-01T12:13:56.180Z,67.99
2023-01-01T12:16:43.010Z,68.37
2023-01-01T12:19:20.720Z,67.79
2023-01-01T12:21:52.850Z,67.72
2023-01-01T12:24:19.642Z,67.15
2023-01-01T12:27:06.747Z,67.24
2023-01-01T12:29:48.952Z,67.50
2023-01-01T12:32:43.724Z,67.96
2023-01-01T12:35:18.138Z,67.58
2023-01-01T12:37:56.784Z,67.60
2023-01-01T12:40:51.552Z,67.71
2023-01-01T12:43:27.547Z,66.61
2023-01-01T12:46:28.051Z,67.35
2023-01-01T12:49:04.353Z,67.03
2023-01-01T12:51:45.615Z,65.92
2023-01-01T12:54:27.403Z,65.87
2023-01-01T12:57:19.974Z,66.53
2023-01-01T12:59:48.467Z,65.43
2023-01-01T13:02:21.666Z,65.91
2023-01-01T13:04:50.285Z,65.89
2023-01-01T13:07:22.742Z,66.01
2023-01-01T13:09:49.622Z,65.98
2023-01-01T13:12:18.964Z,65.75
2023-01-01T13:14:47.133Z,65.44
2023-01-01T13:17:25.348Z,65.64
2023-01-01T13:19:59.380Z,65.18
2023-01-01T13:22:25.589Z,66.98
2023-01-01T13:25:22.342Z,66.16
2023-01-01T13:27:58.041Z,65.85
2023-01-01T13:30:37.048Z,64.90
2023-01-01T13:33:12.621Z,65.69
2023-01-01T13:35:39.072Z,66.49
2023-01-01T13:38:43.957Z,65.65
2023-01-01T13:41:29.876Z,65.62
2023-01-01T13:43:59.149Z,65.60
2023-01-01T13:46:43.919Z,65.31
2023-01-01T13:49:28.792Z,65.62
2023-01-01T13:52:13.942Z,65.77
2023-01-01T13:55:15.747Z,65.58
2023-01-01T13:58:19.959Z,66.58
2023-01-01T14:01:14.720Z,66.39
2023-01-01T14:03:45.829Z,67.18
2023-01-01T14:06:38.519Z,67.29
2023-01-01T14:09:15.507Z,67.18
2023-01-01T14:11:41.987Z,67.26
2023-01-01T14:14:28.562Z,67.39
2023-01-01T14:17:05.839Z,67.86
2023-01-01T14:19:32.493Z,67.87
2023-01-01T14:21:58.962Z,67.63
2023-01-01T14:24:26.213Z,67.32
2023-01-01T14:26:54.800Z,67.90
2023-01-01T14:29:27.508Z,68.48
2023-01-01T14:31:54.418Z,68.58
2023-01-01T14:34:25.029Z,68.56
2023-01-01T14:36:57.188Z,68.98
2023-01-01T14:39:30.461Z,69.44
2023-01-01T14:42:02.730Z,70.91
2023-01-01T14:44:40.396Z,70.44
2023-01-01T14:47:21.372Z,70.53
2023-01-01T14:49:48.267Z,70.58
2023-01-01T14:52:35.539Z,71.90
2023-01-01T14:55:03.911Z,71.33
2023-01-01T14:57:32.449Z,71.68
2023-01-01T14:59:58.960Z,71.41
2023-01-01T15:02:30.442Z,71.39
2023-01-01T15:04:58.047Z,71.35
2023-01-01T15:07:25.568Z,72.03
2023-01-01T15:09:54.024Z,72.05
2023-01-01T15:12:21.374Z,71.94
2023-01-01T15:14:49.312Z,72.07
2023-01-01T15:17:17.519Z,72.18
2023-01-01T15:19:46.355Z,72.24
2023-01-01T15:22:21.475Z,72.83
2023-01-01T15:24:48.825Z,72.20
2023-01-01T15:27:36.008Z,72.64
2023-01-01T15:30:09.856Z,72.11
2023-01-01T15:32:39.807Z,72.56
2023-01-01T15:35:17.807Z,72.13
2023-01-01T15:37:49.415Z,72.60
2023-01-01T15:40:15.646Z,72.36
2023-01-01T15:42:48.678Z,72.40
2023-01-01T15:45:17.911Z,72.59
2023-01-01T15:47:44.559Z,72.79
2023-01-01T15:50:20.603Z,73.40
2023-01-01T15:52:55.040Z,73.24
2023-01-01T15:55:22.021Z,73.09
2023-01-01T15:57:49.512Z,72.75
2023-01-01T16:00:21.550Z,72.09
2023-01-01T16:02:50.512Z,72.59
2023-01-01T16:05:20.750Z,71.55
2023-01-01T16:07:47.479Z,72.39
2023-01-01T16:10:15.480Z,72.71
2023-01-01T16:12:41.861Z,73.68
2023-01-01T16:15:14.346Z,72.59
2023-01-01T16:17:40.973Z,73.96
2023-01-01T16:20:07.735Z,74.54
2023-01-01T16:22:36.798Z,74.84
2023-01-01T16:25:12.368Z,75.65
2023-01-01T16:27:38.712Z,75.64
2023-01-01T16:30:05.581Z,75.50
2023-01-01T16:32:31.945Z,76.35
2023-01-01T16:34:58.279Z,76.22
2023-01-01T16:37:24.680Z,76.42
2023-01-01T16:39:51.073Z,76.71
2023-01-01T16:42:17.709Z,76.96
2023-01-01T16:44:44.432Z,76.29
2023-01-01T16:47:10.819Z,75.32
2023-01-01T16:49:37.197Z,76.53
2023-01-01T16:52:03.582Z,75.82
2023-01-01T16:54:29.963Z,75.43
2023-01-01T16:56:56.300Z,75.52
2023-01-01T16:59:24.131Z,73.86
2023-01-01T17:01:50.604Z,73.25
2023-01-01T17:04:17.038Z,73.67
2023-01-01T17:06:43.401Z,73.53
2023-01-01T17:09:09.799Z,74.97
2023-01-01T17:11:36.341Z,74.33
2023-01-01T17:14:02.738Z,74.76
2023-01-01T17:16:34.659Z,75.89
2023-01-01T17:19:20.616Z,76.04
2023-01-01T17:21:47.532Z,76.21
2023-01-01T17:24:18.647Z,76.08
2023-01-01T17:26:45.372Z,76.77
2023-01-01T17:29:11.919Z,77.24
2023-01-01T17:31:38.396Z,77.24
2023-01-01T17:34:04.746Z,77.72
2023-01-01T17:36:31.178Z,77.58
2023-01-01T17:38:57.632Z,77.56
2023-01-01T17:41:24.052Z,76.95
2023-01-01T17:43:51.531Z,77.81
2023-01-01T17:46:20.778Z,77.80
2023-01-01T17:48:47.555Z,77.77
2023-01-01T17:51:15.532Z,77.77
2023-01-01T17:53:42.019Z,76.92
2023-01-01T17:56:13.536Z,77.53
2023-01-01T17:58:41.064Z,77.02
2023-01-01T18:01:10.279Z,77.92
2023-01-01T18:03:37.480Z,77.96
2023-01-01T18:06:04.274Z,78.72
2023-01-01T18:08:32.848Z,79.40
2023-01-01T18:10:59.848Z,80.05
2023-01-01T18:13:27.100Z,79.29
2023-01-01T18:15:53.613Z,79.33
2023-01-01T18:18:20.003Z,79.12
2023-01-01T18:20:47.706Z,79.02
2023-01-01T18:23:14.247Z,79.01
2023-01-01T18:25:40.666Z,78.99
2023-01-01T18:28:10.163Z,79.06
2023-01-01T18:30:36.616Z,79.33
2023-01-01T18:33:03.008Z,79.29
2023-01-01T18:35:29.389Z,80.11
2023-01-01T18:37:56.909Z,80.27
2023-01-01T18:40:23.805Z,80.30
2023-01-01T18:42:56.349Z,80.39
2023-01-01T18:45:23.664Z,80.71
2023-01-01T18:47:50.397Z,80.03
2023-01-01T18:50:25.606Z,80.32
2023-01-01T18:53:11.604Z,80.36
2023-01-01T18:55:38.211Z,81.16
2023-01-01T18:58:24.805Z,80.44
2023-01-01T19:00:53.680Z,80.10
2023-01-01T19:03:28.122Z,80.11
2023-01-01T19:05:56.031Z,80.18
2023-01-01T19:08:23.211Z,80.13
2023-01-01T19:10:49.475Z,80.15
2023-01-01T19:13:28.424Z,80.17
2023-01-01T19:16:02.665Z,80.30
2023-01-01T19:18:31.300Z,80.82
2023-01-01T19:21:17.174Z,80.88
2023-01-01T19:23:53.525Z,81.37
2023-01-01T19:26:25.045Z,81.52
2023-01-01T19:28:55.333Z,81.37
2023-01-01T19:31:22.087Z,81.09
2023-01-01T19:33:48.678Z,80.77
2023-01-01T19:36:15.077Z,81.02
2023-01-01T19:38:41.544Z,80.74
2023-01-01T19:41:07.989Z,81.18
2023-01-01T19:43:34.421Z,80.23
2023-01-01T19:46:00.780Z,80.82
2023-01-01T19:48:27.174Z,80.61
2023-01-01T19:50:53.528Z,81.25
2023-01-01T19:53:19.934Z,81.29
2023-01-01T19:55:46.286Z,80.64
2023-01-01T19:58:13.622Z,80.55
2023-01-01T20:00:40.119Z,80.60
2023-01-01T20:03:42.803Z,80.25
2023-01-01T20:05:52.824Z,80.19
2023-01-01T20:08:19.154Z,80.79
2023-01-01T20:10:45.518Z,81.15
2023-01-01T20:13:11.869Z,81.39
2023-01-01T20:15:43.146Z,81.40
2023-01-01T20:18:12.769Z,81.48
2023-01-01T20:20:59.129Z,81.89
2023-01-01T20:23:25.577Z,80.79
2023-01-01T20:25:51.936Z,81.55
2023-01-01T20:28:36.828Z,81.65
2023-01-01T20:31:03.192Z,81.39
2023-01-01T20:33:29.566Z,81.17
2023-01-01T20:36:14.460Z,81.32
2023-01-01T20:38:40.814Z,81.79
2023-01-01T20:41:25.072Z,82.09
2023-01-01T20:43:56.462Z,82.78
2023-01-01T20:46:25.035Z,82.25
2023-01-01T20:48:54.131Z,82.01
2023-01-01T20:51:20.529Z,81.25
2023-01-01T20:53:46.878Z,81.45
2023-01-01T20:56:13.357Z,80.47
2023-01-01T20:58:45.980Z,80.54
2023-01-01T21:01:15.316Z,81.13
2023-01-01T21:03:41.762Z,80.61
2023-01-01T21:06:08.178Z,80.81
2023-01-01T21:08:34.703Z,81.38
2023-01-01T21:11:01.035Z,81.31
2023-01-01T21:13:27.466Z,81.48
2023-01-01T21:15:54.938Z,81.76
2023-01-01T21:18:21.352Z,81.03
2023-01-01T21:20:48.701Z,81.16
2023-01-01T21:23:25.616Z,81.65
2023-01-01T21:25:52.451Z,81.64
2023-01-01T21:28:19.209Z,81.76
2023-01-01T21:30:51.124Z,81.80
2023-01-01T21:33:28.919Z,81.45
2023-01-01T21:35:55.446Z,81.98
2023-01-01T21:38:24.821Z,82.39
2023-01-01T21:40:53.572Z,82.42
2023-01-01T21:43:40.312Z,82.39
2023-01-01T21:46:06.626Z,81.04
2023-01-01T21:48:38.365Z,78.83
2023-01-01T21:51:24.767Z,78.97
2023-01-01T21:53:51.501Z,80.39
2023-01-01T21:56:32.217Z,80.44
2023-01-01T21:59:27.751Z,81.41
2023-01-01T22:02:06.820Z,80.96
2023-01-01T22:04:39.781Z,79.35
2023-01-01T22:10:24.955Z,77.67
2023-01-01T22:12:56.980Z,77.87
2023-01-01T22:15:29.698Z,79.77
2023-01-01T22:17:58.695Z,77.89
2023-01-01T22:20:25.123Z,77.15
2023-01-01T22:22:51.508Z,77.52
2023-01-01T22:25:22.951Z,78.67
2023-01-01T22:27:49.318Z,79.77
2023-01-01T22:30:18.746Z,81.29
2023-01-01T22:32:52.124Z,78.97
2023-01-01T22:35:21.788Z,77.77
2023-01-01T22:37:54.036Z,77.59
2023-01-01T22:40:30.898Z,77.63
2023-01-01T22:43:01.147Z,78.69
2023-01-01T22:45:27.919Z,78.54
2023-01-01T22:47:56.559Z,76.68
2023-01-01T22:50:25.995Z,77.10
2023-01-01T22:52:52.387Z,76.92
2023-01-01T22:55:19.099Z,77.03
2023-01-01T22:57:45.743Z,76.40
2023-01-01T23:00:13.566Z,77.39
2023-01-01T23:02:39.918Z,76.80
2023-01-01T23:05:06.713Z,77.07
2023-01-01T23:07:39.655Z,76.47
2023-01-01T23:10:08.865Z,75.71
2023-01-01T23:12:35.258Z,76.04
2023-01-01T23:15:20.217Z,76.37
2023-01-01T23:17:46.539Z,77.64
2023-01-01T23:20:13.107Z,76.92
2023-01-01T23:22:44.855Z,76.96
2023-01-01T23:25:13.029Z,76.58
2023-01-01T23:27:40.104Z,76.53
2023-01-01T23:30:06.902Z,76.62
2023-01-01T23:32:33.709Z,76.62
2023-01-01T23:35:00.183Z,76.38
2023-01-01T23:37:26.845Z,76.71
2023-01-01T23:39:53.290Z,76.60
2023-01-01T23:42:22.631Z,76.34
2023-01-01T23:44:49.024Z,76.54
2023-01-01T23:47:15.395Z,76.64
2023-01-01T23:49:41.985Z,75.94
2023-01-01T23:52:08.831Z,75.78
2023-01-01T23:54:35.518Z,75.74
2023-01-01T23:57:01.943Z,75.67
2023-01-01T23:59:28.297Z,75.45
